Marchena, Spain
Current Conditions -  °F | °C
As of 3:00 PM on Friday 31 Oct 2014 (Local Time) from LEMO Reporting Station
Clear Clear  
Wind Chill: 84°   Ceiling: Unl
Heat Index: 84°   Visibility: 6mi
Dew Point: 43°   Wind: 5mph
Humidity: 23%   Direction: 250°WSW
Pressure: 30.09"   Gusts: NA
Location:  37.33°N, 5.42°W
Report Text: LEMO 311400Z 25004KT 200V280 CAVOK 29/06 Q1019 NOSIG
Loading
Personal Weather Stations






























Interactive Weather Map
Tropical Storm Tracking
New forecast layout! Learn more

10-Day Weather Forecast

Advertisements
Track Severe Weather on mobile